Time,TemperatureF,DewpointF,PressureIn,WindDirection,WindDirectionDegrees,WindSpeedMPH,WindSpeedGustMPH,Humidity,HourlyPrecipIn,Conditions,Clouds,dailyrainin,SoftwareType,DateUTC
2013-04-10 00:00:00,55.7,47.3,29.93,SE,133,0.0,2.0,73,0.00,,,0.00,WUHU216DAVISVP2,2013-04-10 04:00:00,
2013-04-10 00:05:00,56.0,47.6,29.94,WNW,292,2.0,6.0,73,0.00,,,0.00,WUHU216DAVISVP2,2013-04-10 04:05:00,
2013-04-10 00:10:00,56.3,47.5,29.94,WNW,292,0.0,6.0,72,0.00,,,0.00,WUHU216DAVISVP2,2013-04-10 04:10:00,
2013-04-10 00:15:00,56.4,47.6,29.94,West,281,0.0,4.0,72,0.00,,,0.00,WUHU216DAVISVP2,2013-04-10 04:15:00,
2013-04-10 00:21:00,56.6,47.8,29.94,South,191,0.0,6.0,72,0.00,,,0.00,WUHU216DAVISVP2,2013-04-10 04:21:00,
2013-04-10 00:26:00,56.8,48.0,29.94,South,191,0.0,6.0,72,0.00,,,0.00,WUHU216DAVISVP2,2013-04-10 04:26:00,
2013-04-10 00:31:00,56.9,48.1,29.94,South,191,0.0,0.0,72,0.00,,,0.00,WUHU216DAVISVP2,2013-04-10 04:31:00,
2013-04-10 00:36:00,57.0,48.2,29.94,South,191,4.0,4.0,72,0.00,,,0.00,WUHU216DAVISVP2,2013-04-10 04:36:00,
2013-04-10 00:41:00,57.1,47.9,29.94,South,191,0.0,4.0,71,0.00,,,0.00,WUHU216DAVISVP2,2013-04-10 04:41:00,
2013-04-10 00:46:00,57.1,48.6,29.93,South,191,6.0,6.0,73,0.00,,,0.00,WUHU216DAVISVP2,2013-04-10 04:46:00,
2013-04-10 00:51:00,57.2,48.7,29.94,South,191,0.0,6.0,73,0.00,,,0.00,WUHU216DAVISVP2,2013-04-10 04:51:00,
2013-04-10 00:56:00,57.3,48.5,29.94,South,191,0.0,4.0,72,0.00,,,0.00,WUHU216DAVISVP2,2013-04-10 04:56:00,
2013-04-10 01:05:00,57.3,48.3,29.94,North,0,0.0,0.0,72,0.00,,,0.00,WUHU216DAVISVP2,2013-04-10 05:05:00,
2013-04-10 01:10:00,57.4,48.6,29.95,South,191,0.0,0.0,72,0.00,,,0.00,WUHU216DAVISVP2,2013-04-10 05:10:00,
2013-04-10 01:15:00,57.5,48.7,29.95,South,191,0.0,0.0,72,0.00,,,0.00,WUHU216DAVISVP2,2013-04-10 05:15:00,
2013-04-10 01:20:00,57.5,48.7,29.95,South,191,0.0,0.0,72,0.00,,,0.00,WUHU216DAVISVP2,2013-04-10 05:20:00,
2013-04-10 01:25:00,57.6,48.8,29.95,South,191,0.0,4.0,72,0.00,,,0.00,WUHU216DAVISVP2,2013-04-10 05:25:00,
2013-04-10 01:30:00,57.7,49.2,29.95,South,191,0.0,4.0,73,0.00,,,0.00,WUHU216DAVISVP2,2013-04-10 05:30:00,
2013-04-10 01:35:00,57.8,49.3,29.95,South,191,0.0,0.0,73,0.00,,,0.00,WUHU216DAVISVP2,2013-04-10 05:35:00,
2013-04-10 01:40:00,57.8,49.3,29.95,South,191,0.0,0.0,73,0.00,,,0.00,WUHU216DAVISVP2,2013-04-10 05:40:00,
2013-04-10 01:45:00,57.8,49.3,29.95,South,191,0.0,0.0,73,0.00,,,0.00,WUHU216DAVISVP2,2013-04-10 05:45:00,
2013-04-10 01:50:00,57.9,49.8,29.95,South,191,0.0,0.0,74,0.00,,,0.00,WUHU216DAVISVP2,2013-04-10 05:50:00,
2013-04-10 01:55:00,57.9,49.8,29.95,South,191,2.0,2.0,74,0.00,,,0.00,WUHU216DAVISVP2,2013-04-10 05:55:00,
2013-04-10 02:00:00,57.9,49.4,29.95,NNW,335,4.0,6.0,73,0.00,,,0.00,WUHU216DAVISVP2,2013-04-10 06:00:00,
2013-04-10 02:05:00,57.6,48.4,29.96,NW,325,2.0,6.0,71,0.00,,,0.00,WUHU216DAVISVP2,2013-04-10 06:05:00,
2013-04-10 02:10:00,57.1,48.3,29.96,NNW,327,2.0,4.0,72,0.00,,,0.00,WUHU216DAVISVP2,2013-04-10 06:10:00,
2013-04-10 02:15:00,56.7,48.2,29.96,NNW,329,2.0,6.0,73,0.00,,,0.00,WUHU216DAVISVP2,2013-04-10 06:15:00,
2013-04-10 02:20:00,55.9,47.1,29.97,North,355,4.0,6.0,72,0.00,,,0.00,WUHU216DAVISVP2,2013-04-10 06:20:00,
2013-04-10 02:25:00,54.9,45.4,29.97,NW,318,4.0,8.0,70,0.00,,,0.00,WUHU216DAVISVP2,2013-04-10 06:25:00,
2013-04-10 02:30:00,52.7,44.4,29.98,NNW,337,2.0,8.0,73,0.00,,,0.00,WUHU216DAVISVP2,2013-04-10 06:30:00,
2013-04-10 02:35:00,50.9,43.7,29.98,ENE,76,0.0,8.0,76,0.00,,,0.00,WUHU216DAVISVP2,2013-04-10 06:35:00,
2013-04-10 02:40:00,49.6,43.1,29.98,ENE,75,0.0,8.0,78,0.00,,,0.00,WUHU216DAVISVP2,2013-04-10 06:40:00,
2013-04-10 02:46:00,48.9,43.3,29.97,ENE,75,2.0,6.0,81,0.00,,,0.00,WUHU216DAVISVP2,2013-04-10 06:46:00,
2013-04-10 02:51:00,48.5,43.3,29.97,ENE,75,0.0,4.0,82,0.00,,,0.00,WUHU216DAVISVP2,2013-04-10 06:51:00,
2013-04-10 02:56:00,48.1,42.6,29.97,East,91,4.0,4.0,81,0.00,,,0.00,WUHU216DAVISVP2,2013-04-10 06:56:00,
2013-04-10 03:01:00,47.8,42.9,29.97,East,91,2.0,4.0,83,0.00,,,0.00,WUHU216DAVISVP2,2013-04-10 07:01:00,
2013-04-10 03:06:00,47.6,42.7,29.97,East,80,2.0,6.0,83,0.00,,,0.00,WUHU216DAVISVP2,2013-04-10 07:06:00,
2013-04-10 03:11:00,47.5,43.2,29.97,ESE,115,0.0,6.0,85,0.00,,,0.00,WUHU216DAVISVP2,2013-04-10 07:11:00,
2013-04-10 03:16:00,47.5,43.2,29.97,ESE,115,0.0,6.0,85,0.00,,,0.00,WUHU216DAVISVP2,2013-04-10 07:16:00,
2013-04-10 03:21:00,47.5,43.5,29.97,ESE,115,0.0,6.0,86,0.00,,,0.00,WUHU216DAVISVP2,2013-04-10 07:21:00,
2013-04-10 03:27:00,47.6,43.6,29.97,ESE,115,0.0,2.0,86,0.00,,,0.00,WUHU216DAVISVP2,2013-04-10 07:27:00,
2013-04-10 03:32:00,47.7,44.0,29.96,ESE,115,2.0,2.0,87,0.00,,,0.00,WUHU216DAVISVP2,2013-04-10 07:32:00,
2013-04-10 03:37:00,47.8,44.1,29.96,ESE,115,0.0,2.0,87,0.00,,,0.00,WUHU216DAVISVP2,2013-04-10 07:37:00,
2013-04-10 03:42:00,47.9,43.9,29.97,ESE,115,0.0,2.0,86,0.00,,,0.00,WUHU216DAVISVP2,2013-04-10 07:42:00,
2013-04-10 03:47:00,48.0,44.0,29.96,ESE,115,0.0,2.0,86,0.00,,,0.00,WUHU216DAVISVP2,2013-04-10 07:47:00,
2013-04-10 03:52:00,48.1,44.1,29.96,ESE,115,0.0,2.0,86,0.00,,,0.00,WUHU216DAVISVP2,2013-04-10 07:52:00,
2013-04-10 03:57:00,48.3,44.6,29.96,ESE,115,0.0,0.0,87,0.00,,,0.00,WUHU216DAVISVP2,2013-04-10 07:57:00,
2013-04-10 04:02:00,48.5,44.5,29.96,ESE,115,0.0,2.0,86,0.00,,,0.00,WUHU216DAVISVP2,2013-04-10 08:02:00,
2013-04-10 04:07:00,48.7,44.7,29.96,ESE,115,0.0,2.0,86,0.00,,,0.00,WUHU216DAVISVP2,2013-04-10 08:07:00,
2013-04-10 04:12:00,48.9,44.9,29.96,ESE,115,0.0,0.0,86,0.00,,,0.00,WUHU216DAVISVP2,2013-04-10 08:12:00,
2013-04-10 04:17:00,49.0,45.0,29.96,ESE,115,0.0,0.0,86,0.00,,,0.00,WUHU216DAVISVP2,2013-04-10 08:17:00,
2013-04-10 04:22:00,49.0,45.0,29.96,ESE,115,0.0,0.0,86,0.00,,,0.00,WUHU216DAVISVP2,2013-04-10 08:22:00,
2013-04-10 04:27:00,49.0,45.0,29.96,ESE,115,0.0,0.0,86,0.00,,,0.00,WUHU216DAVISVP2,2013-04-10 08:27:00,
2013-04-10 04:32:00,49.0,45.0,29.96,ESE,115,0.0,2.0,86,0.00,,,0.00,WUHU216DAVISVP2,2013-04-10 08:32:00,
2013-04-10 04:37:00,49.0,45.3,29.96,ENE,65,4.0,4.0,87,0.00,,,0.00,WUHU216DAVISVP2,2013-04-10 08:37:00,
2013-04-10 04:42:00,48.8,45.4,29.95,ENE,65,2.0,4.0,88,0.00,,,0.00,WUHU216DAVISVP2,2013-04-10 08:42:00,
2013-04-10 04:47:00,48.6,45.2,29.95,ENE,60,4.0,6.0,88,0.00,,,0.00,WUHU216DAVISVP2,2013-04-10 08:47:00,
2013-04-10 04:53:00,48.3,45.2,29.95,NE,52,0.0,6.0,89,0.00,,,0.00,WUHU216DAVISVP2,2013-04-10 08:53:00,
2013-04-10 04:58:00,48.2,45.1,29.95,SE,128,0.0,6.0,89,0.00,,,0.00,WUHU216DAVISVP2,2013-04-10 08:58:00,
2013-04-10 05:03:00,48.3,45.5,29.95,SE,128,0.0,6.0,90,0.00,,,0.00,WUHU216DAVISVP2,2013-04-10 09:03:00,
2013-04-10 05:08:00,48.3,45.5,29.94,SE,128,2.0,2.0,90,0.00,,,0.00,WUHU216DAVISVP2,2013-04-10 09:08:00,
2013-04-10 05:13:00,48.4,45.6,29.94,SE,128,0.0,2.0,90,0.00,,,0.00,WUHU216DAVISVP2,2013-04-10 09:13:00,
2013-04-10 05:18:00,48.4,45.6,29.93,SE,128,0.0,2.0,90,0.00,,,0.00,WUHU216DAVISVP2,2013-04-10 09:18:00,
2013-04-10 05:23:00,48.5,45.7,29.93,SE,128,0.0,2.0,90,0.00,,,0.00,WUHU216DAVISVP2,2013-04-10 09:23:00,
2013-04-10 05:28:00,48.6,46.1,29.93,SE,128,0.0,2.0,91,0.00,,,0.00,WUHU216DAVISVP2,2013-04-10 09:28:00,
2013-04-10 05:33:00,48.6,46.1,29.93,SE,128,0.0,0.0,91,0.00,,,0.00,WUHU216DAVISVP2,2013-04-10 09:33:00,
2013-04-10 05:38:00,48.6,46.1,29.93,SE,128,0.0,0.0,91,0.00,,,0.00,WUHU216DAVISVP2,2013-04-10 09:38:00,
2013-04-10 05:43:00,48.6,46.1,29.93,SE,128,0.0,0.0,91,0.00,,,0.00,WUHU216DAVISVP2,2013-04-10 09:43:00,
2013-04-10 05:48:00,48.6,46.1,29.94,SE,128,2.0,4.0,91,0.00,,,0.00,WUHU216DAVISVP2,2013-04-10 09:48:00,
2013-04-10 05:53:00,48.6,46.1,29.93,SE,128,0.0,4.0,91,0.00,,,0.00,WUHU216DAVISVP2,2013-04-10 09:53:00,
2013-04-10 05:58:00,48.7,46.1,29.92,SE,128,0.0,2.0,91,0.00,,,0.00,WUHU216DAVISVP2,2013-04-10 09:58:00,
2013-04-10 06:03:00,48.8,46.2,29.93,SE,128,0.0,0.0,91,0.00,,,0.00,WUHU216DAVISVP2,2013-04-10 10:03:00,
2013-04-10 06:08:00,48.9,46.3,29.93,SE,128,0.0,2.0,91,0.00,,,0.00,WUHU216DAVISVP2,2013-04-10 10:08:00,
2013-04-10 06:13:00,49.0,46.2,29.93,SE,128,0.0,2.0,90,0.00,,,0.00,WUHU216DAVISVP2,2013-04-10 10:13:00,
2013-04-10 06:18:00,49.0,46.2,29.93,SE,128,0.0,2.0,90,0.00,,,0.00,WUHU216DAVISVP2,2013-04-10 10:18:00,
2013-04-10 06:23:00,49.3,46.7,29.93,SSE,156,2.0,4.0,91,0.00,,,0.00,WUHU216DAVISVP2,2013-04-10 10:23:00,
2013-04-10 06:28:00,49.7,46.8,29.93,SSE,168,4.0,8.0,90,0.00,,,0.00,WUHU216DAVISVP2,2013-04-10 10:28:00,
2013-04-10 06:33:00,50.8,48.5,29.93,South,179,0.0,12.0,92,0.00,,,0.00,WUHU216DAVISVP2,2013-04-10 10:33:00,
2013-04-10 06:38:00,51.5,48.6,29.93,South,177,6.0,12.0,90,0.00,,,0.00,WUHU216DAVISVP2,2013-04-10 10:38:00,
2013-04-10 06:43:00,52.8,50.2,29.93,SSE,165,4.0,12.0,91,0.00,,,0.00,WUHU216DAVISVP2,2013-04-10 10:43:00,
2013-04-10 06:48:00,54.0,50.5,29.93,SSW,198,0.0,12.0,88,0.00,,,0.00,WUHU216DAVISVP2,2013-04-10 10:48:00,
2013-04-10 06:53:00,54.7,50.9,29.93,South,178,2.0,14.0,87,0.00,,,0.00,WUHU216DAVISVP2,2013-04-10 10:53:00,
2013-04-10 06:58:00,55.1,50.7,29.93,SSW,204,2.0,14.0,85,0.00,,,0.00,WUHU216DAVISVP2,2013-04-10 10:58:00,
2013-04-10 07:03:00,55.3,50.6,29.93,South,180,0.0,10.0,84,0.00,,,0.00,WUHU216DAVISVP2,2013-04-10 11:03:00,
2013-04-10 07:08:00,55.0,49.9,29.93,South,173,8.0,8.0,83,0.00,,,0.00,WUHU216DAVISVP2,2013-04-10 11:08:00,
2013-04-10 07:13:00,55.3,50.6,29.93,South,172,4.0,16.0,84,0.00,,,0.00,WUHU216DAVISVP2,2013-04-10 11:13:00,
2013-04-10 07:18:00,55.6,50.9,29.93,South,176,8.0,16.0,84,0.00,,,0.00,WUHU216DAVISVP2,2013-04-10 11:18:00,
2013-04-10 07:23:00,55.9,50.8,29.93,ESE,114,8.0,10.0,83,0.00,,,0.00,WUHU216DAVISVP2,2013-04-10 11:23:00,
2013-04-10 07:28:00,56.2,51.1,29.93,South,182,2.0,12.0,83,0.00,,,0.00,WUHU216DAVISVP2,2013-04-10 11:28:00,
2013-04-10 07:33:00,56.6,50.9,29.92,South,172,8.0,12.0,81,0.00,,,0.00,WUHU216DAVISVP2,2013-04-10 11:33:00,
2013-04-10 07:38:00,56.8,51.1,29.92,SSE,162,8.0,12.0,81,0.00,,,0.00,WUHU216DAVISVP2,2013-04-10 11:38:00,
2013-04-10 07:44:00,57.1,51.4,29.92,SSW,204,0.0,12.0,81,0.00,,,0.00,WUHU216DAVISVP2,2013-04-10 11:44:00,
2013-04-10 07:49:00,57.4,51.7,29.92,South,175,6.0,12.0,81,0.00,,,0.00,WUHU216DAVISVP2,2013-04-10 11:49:00,
2013-04-10 07:54:00,57.8,51.7,29.92,SSE,148,4.0,14.0,80,0.00,,,0.00,WUHU216DAVISVP2,2013-04-10 11:54:00,
2013-04-10 07:59:00,58.1,52.0,29.92,SSW,204,4.0,14.0,80,0.00,,,0.00,WUHU216DAVISVP2,2013-04-10 11:59:00,
2013-04-10 08:04:00,58.3,52.2,29.92,South,173,0.0,12.0,80,0.00,,,0.00,WUHU216DAVISVP2,2013-04-10 12:04:00,
2013-04-10 08:09:00,58.6,52.2,29.92,SSW,207,6.0,14.0,79,0.00,,,0.00,WUHU216DAVISVP2,2013-04-10 12:09:00,
2013-04-10 08:14:00,58.9,52.5,29.92,SE,139,6.0,14.0,79,0.00,,,0.00,WUHU216DAVISVP2,2013-04-10 12:14:00,
2013-04-10 08:19:00,59.3,52.5,29.91,South,181,6.0,14.0,78,0.00,,,0.00,WUHU216DAVISVP2,2013-04-10 12:19:00,
2013-04-10 08:24:00,59.8,53.0,29.91,South,181,8.0,14.0,78,0.00,,,0.00,WUHU216DAVISVP2,2013-04-10 12:24:00,
2013-04-10 08:29:00,60.2,53.0,29.92,SSW,206,0.0,14.0,77,0.00,,,0.00,WUHU216DAVISVP2,2013-04-10 12:29:00,
2013-04-10 08:34:00,60.6,53.1,29.92,SSW,194,4.0,10.0,76,0.00,,,0.00,WUHU216DAVISVP2,2013-04-10 12:34:00,
2013-04-10 08:39:00,60.9,53.4,29.91,South,171,4.0,22.0,76,0.00,,,0.00,WUHU216DAVISVP2,2013-04-10 12:39:00,
2013-04-10 08:44:00,61.1,53.6,29.91,SW,236,2.0,22.0,76,0.00,,,0.00,WUHU216DAVISVP2,2013-04-10 12:44:00,
2013-04-10 08:49:00,61.4,53.5,29.91,SSW,193,8.0,16.0,75,0.00,,,0.00,WUHU216DAVISVP2,2013-04-10 12:49:00,
2013-04-10 08:54:00,61.7,53.8,29.91,SSE,150,10.0,14.0,75,0.00,,,0.00,WUHU216DAVISVP2,2013-04-10 12:54:00,
2013-04-10 08:59:00,61.8,53.5,29.91,SW,221,4.0,14.0,74,0.00,,,0.00,WUHU216DAVISVP2,2013-04-10 12:59:00,
2013-04-10 09:04:00,61.8,53.2,29.91,South,190,4.0,14.0,73,0.00,,,0.00,WUHU216DAVISVP2,2013-04-10 13:04:00,
2013-04-10 09:09:00,61.6,53.3,29.91,WSW,242,2.0,10.0,74,0.00,,,0.00,WUHU216DAVISVP2,2013-04-10 13:09:00,
2013-04-10 09:14:00,61.4,53.5,29.91,SSE,161,2.0,12.0,75,0.00,,,0.00,WUHU216DAVISVP2,2013-04-10 13:14:00,
2013-04-10 09:19:00,61.3,53.8,29.91,SSW,196,2.0,12.0,76,0.01,,,0.02,WUHU216DAVISVP2,2013-04-10 13:19:00,
2013-04-10 09:24:00,61.0,54.5,29.91,SE,130,2.0,16.0,79,0.03,,,0.03,WUHU216DAVISVP2,2013-04-10 13:24:00,
2013-04-10 09:29:00,60.6,54.8,29.90,SSE,153,4.0,16.0,81,0.03,,,0.03,WUHU216DAVISVP2,2013-04-10 13:29:00,
2013-04-10 09:34:00,60.4,55.2,29.91,SW,222,4.0,10.0,83,0.03,,,0.03,WUHU216DAVISVP2,2013-04-10 13:34:00,
2013-04-10 09:39:00,60.7,55.9,29.90,South,179,2.0,10.0,84,0.03,,,0.03,WUHU216DAVISVP2,2013-04-10 13:39:00,
2013-04-10 09:45:00,61.0,55.8,29.91,SW,227,6.0,10.0,83,0.03,,,0.03,WUHU216DAVISVP2,2013-04-10 13:45:00,
2013-04-10 09:50:00,61.4,55.9,29.90,South,188,2.0,10.0,82,0.03,,,0.03,WUHU216DAVISVP2,2013-04-10 13:50:00,
2013-04-10 09:55:00,61.9,56.1,29.90,South,172,6.0,20.0,81,0.03,,,0.03,WUHU216DAVISVP2,2013-04-10 13:55:00,
2013-04-10 10:00:00,62.5,56.0,29.90,South,171,10.0,20.0,79,0.03,,,0.03,WUHU216DAVISVP2,2013-04-10 14:00:00,
2013-04-10 10:05:00,63.2,56.7,29.89,SW,233,2.0,18.0,79,0.03,,,0.03,WUHU216DAVISVP2,2013-04-10 14:05:00,
2013-04-10 10:10:00,63.6,57.0,29.89,West,271,6.0,14.0,79,0.03,,,0.03,WUHU216DAVISVP2,2013-04-10 14:10:00,
2013-04-10 10:15:00,64.1,57.2,29.90,WNW,286,4.0,10.0,78,0.03,,,0.03,WUHU216DAVISVP2,2013-04-10 14:15:00,
2013-04-10 10:20:00,64.3,57.0,29.90,North,355,2.0,10.0,77,0.01,,,0.03,WUHU216DAVISVP2,2013-04-10 14:20:00,
2013-04-10 10:25:00,63.4,55.5,29.90,NE,52,4.0,10.0,75,0.00,,,0.03,WUHU216DAVISVP2,2013-04-10 14:25:00,
2013-04-10 10:30:00,61.4,54.9,29.91,NNE,28,6.0,10.0,79,0.00,,,0.03,WUHU216DAVISVP2,2013-04-10 14:30:00,
2013-04-10 10:35:00,58.9,52.5,29.90,ENE,58,4.0,18.0,79,0.00,,,0.03,WUHU216DAVISVP2,2013-04-10 14:35:00,
2013-04-10 10:40:00,57.0,51.9,29.90,East,79,4.0,18.0,83,0.00,,,0.03,WUHU216DAVISVP2,2013-04-10 14:40:00,
2013-04-10 10:45:00,55.7,51.3,29.91,North,5,4.0,8.0,85,0.00,,,0.03,WUHU216DAVISVP2,2013-04-10 14:45:00,
2013-04-10 10:50:00,55.1,51.3,29.91,NNE,31,2.0,8.0,87,0.00,,,0.03,WUHU216DAVISVP2,2013-04-10 14:50:00,
2013-04-10 10:55:00,54.7,51.5,29.91,NE,34,6.0,6.0,89,0.00,,,0.03,WUHU216DAVISVP2,2013-04-10 14:55:00,
2013-04-10 11:00:00,54.1,50.3,29.91,NNE,31,2.0,6.0,87,0.00,,,0.03,WUHU216DAVISVP2,2013-04-10 15:00:00,
2013-04-10 11:05:00,53.8,50.3,29.91,North,360,2.0,8.0,88,0.00,,,0.03,WUHU216DAVISVP2,2013-04-10 15:05:00,
2013-04-10 11:10:00,53.5,50.0,29.91,ENE,65,2.0,8.0,88,0.00,,,0.03,WUHU216DAVISVP2,2013-04-10 15:10:00,
2013-04-10 11:15:00,53.3,50.1,29.91,NE,48,4.0,8.0,89,0.00,,,0.03,WUHU216DAVISVP2,2013-04-10 15:15:00,
2013-04-10 11:20:00,53.4,50.2,29.91,NE,47,0.0,8.0,89,0.00,,,0.03,WUHU216DAVISVP2,2013-04-10 15:20:00,
2013-04-10 11:25:00,53.8,50.6,29.90,NNE,33,0.0,4.0,89,0.00,,,0.03,WUHU216DAVISVP2,2013-04-10 15:25:00,
2013-04-10 11:30:00,54.2,50.7,29.90,ESE,119,0.0,6.0,88,0.00,,,0.03,WUHU216DAVISVP2,2013-04-10 15:30:00,
2013-04-10 11:35:00,54.6,50.8,29.89,East,81,0.0,6.0,87,0.00,,,0.03,WUHU216DAVISVP2,2013-04-10 15:35:00,
2013-04-10 11:40:00,55.1,51.3,29.90,East,81,0.0,4.0,87,0.00,,,0.03,WUHU216DAVISVP2,2013-04-10 15:40:00,
2013-04-10 11:45:00,55.2,51.7,29.90,NE,51,2.0,4.0,88,0.05,,,0.08,WUHU216DAVISVP2,2013-04-10 15:45:00,
2013-04-10 11:50:00,54.4,50.9,29.90,NNE,29,2.0,6.0,88,0.06,,,0.09,WUHU216DAVISVP2,2013-04-10 15:50:00,
2013-04-10 11:56:00,53.3,49.8,29.90,NNE,32,0.0,6.0,88,0.06,,,0.09,WUHU216DAVISVP2,2013-04-10 15:56:00,
2013-04-10 12:01:00,52.3,49.1,29.91,NNE,13,4.0,6.0,89,0.06,,,0.09,WUHU216DAVISVP2,2013-04-10 16:01:00,
2013-04-10 12:06:00,51.2,48.3,29.92,WNW,299,8.0,12.0,90,0.06,,,0.09,WUHU216DAVISVP2,2013-04-10 16:06:00,
2013-04-10 12:11:00,50.4,47.8,29.93,North,9,2.0,12.0,91,0.08,,,0.11,WUHU216DAVISVP2,2013-04-10 16:11:00,
2013-04-10 12:16:00,50.1,47.8,29.92,WNW,296,0.0,8.0,92,0.08,,,0.11,WUHU216DAVISVP2,2013-04-10 16:16:00,
2013-04-10 12:21:00,49.9,47.6,29.92,SSE,147,0.0,6.0,92,0.10,,,0.13,WUHU216DAVISVP2,2013-04-10 16:21:00,
2013-04-10 12:26:00,49.8,47.8,29.92,WSW,244,0.0,6.0,93,0.10,,,0.13,WUHU216DAVISVP2,2013-04-10 16:26:00,
2013-04-10 12:31:00,49.8,47.8,29.92,WSW,244,0.0,6.0,93,0.10,,,0.13,WUHU216DAVISVP2,2013-04-10 16:31:00,
2013-04-10 12:36:00,50.0,48.3,29.91,SSW,212,2.0,4.0,94,0.10,,,0.13,WUHU216DAVISVP2,2013-04-10 16:36:00,
2013-04-10 12:41:00,50.3,48.6,29.90,South,171,0.0,6.0,94,0.10,,,0.13,WUHU216DAVISVP2,2013-04-10 16:41:00,
2013-04-10 12:47:00,50.6,49.2,29.90,South,171,0.0,6.0,95,0.05,,,0.13,WUHU216DAVISVP2,2013-04-10 16:47:00,
2013-04-10 12:52:00,51.0,49.6,29.90,South,171,2.0,4.0,95,0.04,,,0.13,WUHU216DAVISVP2,2013-04-10 16:52:00,
2013-04-10 12:57:00,51.3,49.9,29.90,South,173,4.0,4.0,95,0.04,,,0.13,WUHU216DAVISVP2,2013-04-10 16:57:00,
2013-04-10 13:02:00,51.7,50.3,29.89,South,173,0.0,4.0,95,0.04,,,0.13,WUHU216DAVISVP2,2013-04-10 17:02:00,
2013-04-10 13:07:00,52.5,51.1,29.84,SE,138,12.0,14.0,95,0.04,,,0.13,WUHU216DAVISVP2,2013-04-10 17:07:00,
2013-04-10 13:12:00,53.3,52.2,29.84,SSE,157,2.0,16.0,96,0.02,,,0.13,WUHU216DAVISVP2,2013-04-10 17:12:00,
2013-04-10 13:17:00,54.4,53.2,29.86,NW,309,6.0,16.0,96,0.02,,,0.13,WUHU216DAVISVP2,2013-04-10 17:17:00,
2013-04-10 13:22:00,54.0,52.9,29.89,WNW,289,6.0,12.0,96,0.00,,,0.13,WUHU216DAVISVP2,2013-04-10 17:22:00,
2013-04-10 13:27:00,53.5,52.1,29.90,NW,307,8.0,12.0,95,0.00,,,0.13,WUHU216DAVISVP2,2013-04-10 17:27:00,
2013-04-10 13:32:00,53.7,52.3,29.88,ESE,113,4.0,8.0,95,0.00,,,0.13,WUHU216DAVISVP2,2013-04-10 17:32:00,
2013-04-10 13:37:00,54.8,53.6,29.88,South,177,0.0,6.0,96,0.00,,,0.13,WUHU216DAVISVP2,2013-04-10 17:37:00,
2013-04-10 13:42:00,55.8,54.6,29.89,SW,236,0.0,4.0,96,0.00,,,0.13,WUHU216DAVISVP2,2013-04-10 17:42:00,
2013-04-10 13:47:00,57.1,56.2,29.88,SSW,202,0.0,6.0,97,0.00,,,0.13,WUHU216DAVISVP2,2013-04-10 17:47:00,
2013-04-10 13:52:00,58.4,57.5,29.88,SW,215,2.0,10.0,97,0.00,,,0.13,WUHU216DAVISVP2,2013-04-10 17:52:00,
2013-04-10 13:57:00,59.8,58.9,29.87,SW,215,2.0,14.0,97,0.00,,,0.13,WUHU216DAVISVP2,2013-04-10 17:57:00,
2013-04-10 14:02:00,61.1,59.9,29.87,WNW,286,2.0,14.0,96,0.00,,,0.13,WUHU216DAVISVP2,2013-04-10 18:02:00,
2013-04-10 14:07:00,62.3,59.6,29.87,West,274,10.0,18.0,91,0.00,,,0.13,WUHU216DAVISVP2,2013-04-10 18:07:00,
2013-04-10 14:12:00,62.9,59.3,29.87,SSW,202,6.0,18.0,88,0.00,,,0.13,WUHU216DAVISVP2,2013-04-10 18:12:00,
2013-04-10 14:17:00,63.6,60.0,29.86,WSW,252,4.0,18.0,88,0.00,,,0.13,WUHU216DAVISVP2,2013-04-10 18:17:00,
2013-04-10 14:22:00,64.6,61.3,29.86,WNW,295,0.0,10.0,89,0.00,,,0.13,WUHU216DAVISVP2,2013-04-10 18:22:00,
2013-04-10 14:28:00,65.9,61.6,29.86,WSW,257,2.0,18.0,86,0.01,,,0.14,WUHU216DAVISVP2,2013-04-10 18:28:00,
2013-04-10 14:33:00,67.0,61.7,29.85,WSW,254,0.0,18.0,83,0.01,,,0.14,WUHU216DAVISVP2,2013-04-10 18:33:00,
2013-04-10 14:38:00,67.8,62.5,29.85,West,270,2.0,18.0,83,0.01,,,0.14,WUHU216DAVISVP2,2013-04-10 18:38:00,
2013-04-10 14:43:00,68.3,62.3,29.85,West,269,8.0,20.0,81,0.01,,,0.14,WUHU216DAVISVP2,2013-04-10 18:43:00,
2013-04-10 14:48:00,68.3,62.3,29.85,West,279,2.0,28.0,81,0.01,,,0.14,WUHU216DAVISVP2,2013-04-10 18:48:00,
2013-04-10 14:53:00,68.0,62.0,29.85,SW,227,6.0,28.0,81,0.01,,,0.14,WUHU216DAVISVP2,2013-04-10 18:53:00,
2013-04-10 14:58:00,67.6,61.6,29.85,SW,215,2.0,14.0,81,0.01,,,0.14,WUHU216DAVISVP2,2013-04-10 18:58:00,
2013-04-10 15:03:00,67.4,61.8,29.85,West,271,8.0,14.0,82,0.01,,,0.14,WUHU216DAVISVP2,2013-04-10 19:03:00,
2013-04-10 15:08:00,67.1,61.5,29.87,NW,325,26.0,42.0,82,0.01,,,0.14,WUHU216DAVISVP2,2013-04-10 19:08:00,
2013-04-10 15:13:00,58.9,52.1,29.88,NE,34,6.0,48.0,78,0.01,,,0.14,WUHU216DAVISVP2,2013-04-10 19:13:00,
2013-04-10 15:18:00,55.5,50.1,29.88,SE,138,4.0,48.0,82,0.01,,,0.14,WUHU216DAVISVP2,2013-04-10 19:18:00,
2013-04-10 15:23:00,53.7,49.0,29.88,NNW,342,4.0,22.0,84,0.01,,,0.14,WUHU216DAVISVP2,2013-04-10 19:23:00,
2013-04-10 15:28:00,52.9,48.8,29.87,ENE,75,2.0,14.0,86,0.00,,,0.14,WUHU216DAVISVP2,2013-04-10 19:28:00,
2013-04-10 15:33:00,52.4,48.9,29.87,NE,42,0.0,6.0,88,0.00,,,0.14,WUHU216DAVISVP2,2013-04-10 19:33:00,
2013-04-10 15:38:00,52.2,49.0,29.88,ENE,76,2.0,8.0,89,0.00,,,0.14,WUHU216DAVISVP2,2013-04-10 19:38:00,
2013-04-10 15:43:00,51.7,48.5,29.88,NE,38,6.0,10.0,89,0.00,,,0.14,WUHU216DAVISVP2,2013-04-10 19:43:00,
2013-04-10 15:48:00,51.3,47.8,29.86,ENE,61,6.0,10.0,88,0.00,,,0.14,WUHU216DAVISVP2,2013-04-10 19:48:00,
2013-04-10 15:53:00,51.1,47.9,29.86,ESE,115,2.0,6.0,89,0.00,,,0.14,WUHU216DAVISVP2,2013-04-10 19:53:00,
2013-04-10 15:58:00,51.3,48.4,29.85,NNE,17,4.0,6.0,90,0.00,,,0.14,WUHU216DAVISVP2,2013-04-10 19:58:00,
2013-04-10 16:03:00,51.6,49.0,29.84,SE,132,2.0,8.0,91,0.00,,,0.14,WUHU216DAVISVP2,2013-04-10 20:03:00,
2013-04-10 16:09:00,52.3,49.7,29.84,ESE,119,4.0,8.0,91,0.00,,,0.14,WUHU216DAVISVP2,2013-04-10 20:09:00,
2013-04-10 16:14:00,52.9,50.3,29.84,ESE,119,0.0,6.0,91,0.00,,,0.14,WUHU216DAVISVP2,2013-04-10 20:14:00,
2013-04-10 16:19:00,53.4,50.5,29.84,ESE,111,2.0,6.0,90,0.00,,,0.14,WUHU216DAVISVP2,2013-04-10 20:19:00,
2013-04-10 16:24:00,54.0,51.1,29.84,ESE,111,0.0,6.0,90,0.00,,,0.14,WUHU216DAVISVP2,2013-04-10 20:24:00,
2013-04-10 16:29:00,54.4,51.5,29.84,ESE,111,0.0,4.0,90,0.00,,,0.14,WUHU216DAVISVP2,2013-04-10 20:29:00,
2013-04-10 16:34:00,54.7,51.5,29.84,ESE,112,0.0,4.0,89,0.00,,,0.14,WUHU216DAVISVP2,2013-04-10 20:34:00,
2013-04-10 16:39:00,55.1,52.2,29.87,North,360,8.0,10.0,90,0.00,,,0.14,WUHU216DAVISVP2,2013-04-10 20:39:00,
2013-04-10 16:44:00,52.7,47.7,29.88,SE,135,8.0,26.0,83,0.00,,,0.14,WUHU216DAVISVP2,2013-04-10 20:44:00,
2013-04-10 16:49:00,50.7,47.2,29.86,NNE,15,2.0,26.0,88,0.00,,,0.14,WUHU216DAVISVP2,2013-04-10 20:49:00,
2013-04-10 16:54:00,50.1,47.5,29.88,WNW,289,14.0,14.0,91,0.00,,,0.14,WUHU216DAVISVP2,2013-04-10 20:54:00,
2013-04-10 16:59:00,49.5,46.9,29.93,WSW,250,8.0,18.0,91,0.08,,,0.22,WUHU216DAVISVP2,2013-04-10 20:59:00,
2013-04-10 17:04:00,48.9,46.6,29.92,North,355,0.0,18.0,92,0.10,,,0.24,WUHU216DAVISVP2,2013-04-10 21:04:00,
2013-04-10 17:09:00,48.7,46.7,29.90,South,169,10.0,10.0,93,0.11,,,0.25,WUHU216DAVISVP2,2013-04-10 21:09:00,
2013-04-10 17:14:00,48.8,47.1,29.91,SSE,165,8.0,18.0,94,0.11,,,0.25,WUHU216DAVISVP2,2013-04-10 21:14:00,
2013-04-10 17:19:00,49.1,47.4,29.89,ESE,108,14.0,18.0,94,0.12,,,0.26,WUHU216DAVISVP2,2013-04-10 21:19:00,
2013-04-10 17:24:00,49.7,48.3,29.87,SE,130,6.0,20.0,95,0.13,,,0.27,WUHU216DAVISVP2,2013-04-10 21:24:00,
2013-04-10 17:29:00,50.2,48.8,29.85,SSE,159,8.0,24.0,95,0.13,,,0.27,WUHU216DAVISVP2,2013-04-10 21:29:00,
2013-04-10 17:34:00,50.6,49.2,29.84,East,100,4.0,24.0,95,0.13,,,0.27,WUHU216DAVISVP2,2013-04-10 21:34:00,
2013-04-10 17:39:00,51.0,49.9,29.84,East,80,0.0,12.0,96,0.13,,,0.27,WUHU216DAVISVP2,2013-04-10 21:39:00,
2013-04-10 17:44:00,51.3,49.9,29.83,East,80,0.0,6.0,95,0.13,,,0.27,WUHU216DAVISVP2,2013-04-10 21:44:00,
2013-04-10 17:49:00,51.3,49.9,29.82,NE,55,6.0,6.0,95,0.14,,,0.28,WUHU216DAVISVP2,2013-04-10 21:49:00,
2013-04-10 17:54:00,51.5,50.4,29.80,ENE,63,6.0,6.0,96,0.14,,,0.28,WUHU216DAVISVP2,2013-04-10 21:54:00,
2013-04-10 17:59:00,51.7,50.6,29.83,West,270,6.0,14.0,96,0.06,,,0.28,WUHU216DAVISVP2,2013-04-10 21:59:00,
2013-04-10 18:04:00,51.3,49.9,29.89,NNE,24,18.0,18.0,95,0.04,,,0.28,WUHU216DAVISVP2,2013-04-10 22:04:00,
2013-04-10 18:09:00,50.2,48.5,29.88,NE,34,6.0,20.0,94,0.03,,,0.28,WUHU216DAVISVP2,2013-04-10 22:09:00,
2013-04-10 18:14:00,49.0,47.3,29.89,North,11,8.0,20.0,94,0.03,,,0.28,WUHU216DAVISVP2,2013-04-10 22:14:00,
2013-04-10 18:19:00,47.9,46.2,29.90,NE,49,10.0,16.0,94,0.02,,,0.28,WUHU216DAVISVP2,2013-04-10 22:19:00,
2013-04-10 18:24:00,46.8,44.8,29.91,NE,55,2.0,14.0,93,0.01,,,0.28,WUHU216DAVISVP2,2013-04-10 22:24:00,
2013-04-10 18:29:00,46.4,44.7,29.91,ENE,70,2.0,12.0,94,0.01,,,0.28,WUHU216DAVISVP2,2013-04-10 22:29:00,
2013-04-10 18:35:00,46.2,44.8,29.92,North,349,2.0,14.0,95,0.01,,,0.28,WUHU216DAVISVP2,2013-04-10 22:35:00,
2013-04-10 18:40:00,46.0,44.6,29.92,NE,55,2.0,14.0,95,0.01,,,0.28,WUHU216DAVISVP2,2013-04-10 22:40:00,
2013-04-10 18:45:00,45.9,44.5,29.92,NNE,32,6.0,14.0,95,0.01,,,0.28,WUHU216DAVISVP2,2013-04-10 22:45:00,
2013-04-10 18:50:00,45.6,44.2,29.92,NE,44,6.0,14.0,95,0.00,,,0.28,WUHU216DAVISVP2,2013-04-10 22:50:00,
2013-04-10 18:55:00,45.4,44.0,29.92,NE,44,2.0,12.0,95,0.00,,,0.28,WUHU216DAVISVP2,2013-04-10 22:55:00,
2013-04-10 19:00:00,45.2,43.8,29.93,NE,45,4.0,10.0,95,0.00,,,0.28,WUHU216DAVISVP2,2013-04-10 23:00:00,
2013-04-10 19:05:00,44.7,43.3,29.93,NNE,27,2.0,18.0,95,0.00,,,0.28,WUHU216DAVISVP2,2013-04-10 23:05:00,
2013-04-10 19:10:00,44.2,42.8,29.92,ENE,63,6.0,18.0,95,0.00,,,0.28,WUHU216DAVISVP2,2013-04-10 23:10:00,
2013-04-10 19:15:00,43.6,42.2,29.93,NE,53,2.0,16.0,95,0.00,,,0.28,WUHU216DAVISVP2,2013-04-10 23:15:00,
2013-04-10 19:20:00,43.3,41.9,29.93,NNE,12,4.0,14.0,95,0.00,,,0.28,WUHU216DAVISVP2,2013-04-10 23:20:00,
2013-04-10 19:25:00,42.5,41.1,29.92,East,89,2.0,20.0,95,0.00,,,0.28,WUHU216DAVISVP2,2013-04-10 23:25:00,
2013-04-10 19:30:00,42.3,40.9,29.95,North,5,0.0,20.0,95,0.00,,,0.28,WUHU216DAVISVP2,2013-04-10 23:30:00,
2013-04-10 19:35:00,42.1,40.7,29.97,NW,306,2.0,10.0,95,0.00,,,0.28,WUHU216DAVISVP2,2013-04-10 23:35:00,
2013-04-10 19:40:00,42.0,40.6,29.99,NNE,13,0.0,10.0,95,0.00,,,0.28,WUHU216DAVISVP2,2013-04-10 23:40:00,
2013-04-10 19:45:00,42.0,40.6,29.97,SE,130,2.0,8.0,95,0.00,,,0.28,WUHU216DAVISVP2,2013-04-10 23:45:00,
2013-04-10 19:50:00,42.0,40.6,29.97,SE,130,0.0,4.0,95,0.00,,,0.28,WUHU216DAVISVP2,2013-04-10 23:50:00,
2013-04-10 19:55:00,42.2,41.1,29.97,SE,130,0.0,4.0,96,0.01,,,0.29,WUHU216DAVISVP2,2013-04-10 23:55:00,
2013-04-10 20:00:00,42.3,41.2,29.97,SE,130,2.0,2.0,96,0.01,,,0.29,WUHU216DAVISVP2,2013-04-11 00:00:00,
2013-04-10 20:05:00,42.6,41.5,29.98,North,5,2.0,4.0,96,0.03,,,0.31,WUHU216DAVISVP2,2013-04-11 00:05:00,
2013-04-10 20:10:00,42.6,41.5,29.99,NW,323,2.0,4.0,96,0.03,,,0.31,WUHU216DAVISVP2,2013-04-11 00:10:00,
2013-04-10 20:16:00,42.4,41.3,29.99,NNE,28,2.0,6.0,96,0.05,,,0.33,WUHU216DAVISVP2,2013-04-11 00:16:00,
2013-04-10 20:21:00,42.2,41.1,30.00,NE,53,2.0,6.0,96,0.07,,,0.35,WUHU216DAVISVP2,2013-04-11 00:21:00,
2013-04-10 20:26:00,42.0,40.9,30.00,North,10,0.0,6.0,96,0.08,,,0.36,WUHU216DAVISVP2,2013-04-11 00:26:00,
2013-04-10 20:30:00,41.7,40.6,29.99,NE,56,2.0,14.0,96,0.10,,,0.38,WUHU216DAVISVP2,2013-04-11 00:30:00,
2013-04-10 20:35:00,41.5,40.4,29.98,NE,41,8.0,14.0,96,0.12,,,0.40,WUHU216DAVISVP2,2013-04-11 00:35:00,
2013-04-10 20:41:00,41.4,40.3,29.97,East,82,12.0,14.0,96,0.14,,,0.42,WUHU216DAVISVP2,2013-04-11 00:41:00,
2013-04-10 20:46:00,41.4,40.3,29.95,East,99,4.0,14.0,96,0.16,,,0.44,WUHU216DAVISVP2,2013-04-11 00:46:00,
2013-04-10 20:51:00,41.3,40.2,29.93,East,90,12.0,14.0,96,0.17,,,0.45,WUHU216DAVISVP2,2013-04-11 00:51:00,
2013-04-10 20:56:00,41.3,40.2,29.90,SE,125,8.0,20.0,96,0.17,,,0.46,WUHU216DAVISVP2,2013-04-11 00:56:00,
2013-04-10 21:01:00,41.3,40.2,29.89,NE,56,6.0,20.0,96,0.18,,,0.47,WUHU216DAVISVP2,2013-04-11 01:01:00,
2013-04-10 21:06:00,41.4,40.3,29.87,ENE,59,10.0,20.0,96,0.16,,,0.47,WUHU216DAVISVP2,2013-04-11 01:06:00,
2013-04-10 21:11:00,41.5,40.4,29.83,ESE,110,10.0,26.0,96,0.17,,,0.48,WUHU216DAVISVP2,2013-04-11 01:11:00,
2013-04-10 21:16:00,41.6,40.5,29.86,NNE,18,10.0,28.0,96,0.15,,,0.48,WUHU216DAVISVP2,2013-04-11 01:16:00,
2013-04-10 21:21:00,41.8,40.7,29.87,SSW,194,8.0,28.0,96,0.13,,,0.48,WUHU216DAVISVP2,2013-04-11 01:21:00,
2013-04-10 21:27:00,42.0,40.9,29.89,South,169,2.0,16.0,96,0.11,,,0.48,WUHU216DAVISVP2,2013-04-11 01:27:00,
2013-04-10 21:32:00,42.4,41.3,29.93,NNE,32,6.0,12.0,96,0.09,,,0.48,WUHU216DAVISVP2,2013-04-11 01:32:00,
2013-04-10 21:37:00,42.5,41.4,29.96,NE,46,4.0,10.0,96,0.08,,,0.48,WUHU216DAVISVP2,2013-04-11 01:37:00,
2013-04-10 21:42:00,42.4,41.3,29.96,NE,36,6.0,8.0,96,0.06,,,0.48,WUHU216DAVISVP2,2013-04-11 01:42:00,
2013-04-10 21:47:00,41.9,40.8,29.96,NNE,24,2.0,8.0,96,0.04,,,0.48,WUHU216DAVISVP2,2013-04-11 01:47:00,
2013-04-10 21:52:00,41.7,40.6,29.96,NNE,30,2.0,12.0,96,0.02,,,0.48,WUHU216DAVISVP2,2013-04-11 01:52:00,
2013-04-10 21:57:00,41.5,40.4,29.96,NE,51,2.0,14.0,96,0.02,,,0.48,WUHU216DAVISVP2,2013-04-11 01:57:00,
2013-04-10 22:02:00,41.5,40.4,29.95,ENE,66,2.0,14.0,96,0.01,,,0.48,WUHU216DAVISVP2,2013-04-11 02:02:00,
2013-04-10 22:07:00,41.5,40.4,29.95,East,90,2.0,16.0,96,0.01,,,0.48,WUHU216DAVISVP2,2013-04-11 02:07:00,
2013-04-10 22:12:00,41.5,40.4,29.95,SSE,150,6.0,16.0,96,0.00,,,0.48,WUHU216DAVISVP2,2013-04-11 02:12:00,
2013-04-10 22:17:00,41.6,40.5,29.94,SSE,164,0.0,12.0,96,0.00,,,0.48,WUHU216DAVISVP2,2013-04-11 02:17:00,
2013-04-10 22:22:00,41.6,40.5,29.93,SE,132,6.0,12.0,96,0.00,,,0.48,WUHU216DAVISVP2,2013-04-11 02:22:00,
2013-04-10 22:27:00,41.6,40.5,29.92,SE,127,4.0,14.0,96,0.00,,,0.48,WUHU216DAVISVP2,2013-04-11 02:27:00,
2013-04-10 22:32:00,41.7,40.6,29.92,East,86,2.0,14.0,96,0.00,,,0.48,WUHU216DAVISVP2,2013-04-11 02:32:00,
2013-04-10 22:37:00,41.8,40.7,29.92,NNE,31,0.0,8.0,96,0.00,,,0.48,WUHU216DAVISVP2,2013-04-11 02:37:00,
2013-04-10 22:42:00,41.9,40.8,29.92,NE,51,4.0,8.0,96,0.00,,,0.48,WUHU216DAVISVP2,2013-04-11 02:42:00,
2013-04-10 22:47:00,42.0,40.9,29.92,NE,51,2.0,8.0,96,0.00,,,0.48,WUHU216DAVISVP2,2013-04-11 02:47:00,
2013-04-10 22:52:00,42.0,40.9,29.92,North,10,0.0,6.0,96,0.00,,,0.48,WUHU216DAVISVP2,2013-04-11 02:52:00,
2013-04-10 22:57:00,41.9,40.8,29.92,NE,38,2.0,6.0,96,0.00,,,0.48,WUHU216DAVISVP2,2013-04-11 02:57:00,
2013-04-10 23:02:00,41.8,40.7,29.93,East,101,0.0,6.0,96,0.00,,,0.48,WUHU216DAVISVP2,2013-04-11 03:02:00,
2013-04-10 23:07:00,41.7,40.3,29.93,NNE,30,4.0,6.0,95,0.00,,,0.48,WUHU216DAVISVP2,2013-04-11 03:07:00,
2013-04-10 23:12:00,41.6,40.2,29.94,NE,53,0.0,6.0,95,0.00,,,0.48,WUHU216DAVISVP2,2013-04-11 03:12:00,
2013-04-10 23:18:00,41.6,40.5,29.94,NE,53,2.0,6.0,96,0.00,,,0.48,WUHU216DAVISVP2,2013-04-11 03:18:00,
2013-04-10 23:23:00,41.6,40.5,29.94,NE,53,0.0,4.0,96,0.00,,,0.48,WUHU216DAVISVP2,2013-04-11 03:23:00,
2013-04-10 23:28:00,41.6,40.5,29.95,NE,53,0.0,2.0,96,0.00,,,0.48,WUHU216DAVISVP2,2013-04-11 03:28:00,
2013-04-10 23:33:00,41.6,40.5,29.95,NE,53,0.0,2.0,96,0.00,,,0.48,WUHU216DAVISVP2,2013-04-11 03:33:00,
2013-04-10 23:38:00,41.6,40.5,29.97,NE,53,0.0,2.0,96,0.00,,,0.48,WUHU216DAVISVP2,2013-04-11 03:38:00,
2013-04-10 23:43:00,41.7,40.6,29.97,ESE,112,2.0,2.0,96,0.00,,,0.48,WUHU216DAVISVP2,2013-04-11 03:43:00,
2013-04-10 23:48:00,41.8,40.7,29.96,ESE,114,0.0,2.0,96,0.00,,,0.48,WUHU216DAVISVP2,2013-04-11 03:48:00,
2013-04-10 23:53:00,41.8,40.7,29.95,SSE,158,0.0,2.0,96,0.00,,,0.48,WUHU216DAVISVP2,2013-04-11 03:53:00,
2013-04-10 23:58:00,42.0,40.9,29.95,SSE,158,0.0,2.0,96,0.00,,,0.48,WUHU216DAVISVP2,2013-04-11 03:58:00,